sensor_id;sensor_type;location;lat;lon;timestamp;P1;durP1;ratioP1;P2;durP2;ratioP2
62092;SDS011;59819;52.976;6.846;2022-10-16T00:01:42;11.35;;;4.03;;
62092;SDS011;59819;52.976;6.846;2022-10-16T00:04:08;10.38;;;3.80;;
62092;SDS011;59819;52.976;6.846;2022-10-16T00:06:35;6.30;;;3.70;;
62092;SDS011;59819;52.976;6.846;2022-10-16T00:09:01;9.95;;;4.00;;
62092;SDS011;59819;52.976;6.846;2022-10-16T00:11:28;9.93;;;4.03;;
62092;SDS011;59819;52.976;6.846;2022-10-16T00:13:56;7.05;;;3.67;;
62092;SDS011;59819;52.976;6.846;2022-10-16T00:16:23;6.57;;;3.60;;
62092;SDS011;59819;52.976;6.846;2022-10-16T00:18:49;6.30;;;4.00;;
62092;SDS011;59819;52.976;6.846;2022-10-16T00:21:16;9.20;;;3.72;;
62092;SDS011;59819;52.976;6.846;2022-10-16T00:23:43;8.73;;;3.75;;
62092;SDS011;59819;52.976;6.846;2022-10-16T00:26:15;8.02;;;3.58;;
62092;SDS011;59819;52.976;6.846;2022-10-16T00:28:44;6.20;;;3.65;;
62092;SDS011;59819;52.976;6.846;2022-10-16T00:31:11;11.02;;;3.72;;
62092;SDS011;59819;52.976;6.846;2022-10-16T00:33:37;7.00;;;3.60;;
62092;SDS011;59819;52.976;6.846;2022-10-16T00:36:04;9.05;;;4.00;;
62092;SDS011;59819;52.976;6.846;2022-10-16T00:38:31;9.02;;;3.50;;
62092;SDS011;59819;52.976;6.846;2022-10-16T00:40:57;10.52;;;3.60;;
62092;SDS011;59819;52.976;6.846;2022-10-16T00:46:21;9.18;;;3.63;;
62092;SDS011;59819;52.976;6.846;2022-10-16T00:48:50;7.65;;;3.20;;
62092;SDS011;59819;52.976;6.846;2022-10-16T00:51:18;6.18;;;3.25;;
62092;SDS011;59819;52.976;6.846;2022-10-16T00:53:45;10.00;;;3.58;;
62092;SDS011;59819;52.976;6.846;2022-10-16T00:56:12;6.38;;;3.90;;
62092;SDS011;59819;52.976;6.846;2022-10-16T00:58:38;8.32;;;3.28;;
62092;SDS011;59819;52.976;6.846;2022-10-16T01:01:04;8.75;;;3.42;;
62092;SDS011;59819;52.976;6.846;2022-10-16T01:03:31;14.82;;;4.22;;
62092;SDS011;59819;52.976;6.846;2022-10-16T01:06:15;6.63;;;3.45;;
62092;SDS011;59819;52.976;6.846;2022-10-16T01:11:25;10.73;;;3.90;;
62092;SDS011;59819;52.976;6.846;2022-10-16T01:13:53;7.70;;;3.50;;
62092;SDS011;59819;52.976;6.846;2022-10-16T01:18:47;12.02;;;4.03;;
62092;SDS011;59819;52.976;6.846;2022-10-16T01:21:26;7.40;;;4.10;;
62092;SDS011;59819;52.976;6.846;2022-10-16T01:29:15;7.90;;;4.15;;
62092;SDS011;59819;52.976;6.846;2022-10-16T01:31:44;9.35;;;4.30;;
62092;SDS011;59819;52.976;6.846;2022-10-16T01:34:21;8.13;;;4.18;;
62092;SDS011;59819;52.976;6.846;2022-10-16T01:36:50;6.85;;;3.80;;
62092;SDS011;59819;52.976;6.846;2022-10-16T01:39:20;9.05;;;4.20;;
62092;SDS011;59819;52.976;6.846;2022-10-16T01:41:48;5.82;;;4.20;;
62092;SDS011;59819;52.976;6.846;2022-10-16T01:44:18;6.38;;;4.15;;
62092;SDS011;59819;52.976;6.846;2022-10-16T01:46:46;7.32;;;4.25;;
62092;SDS011;59819;52.976;6.846;2022-10-16T01:49:14;7.90;;;4.30;;
62092;SDS011;59819;52.976;6.846;2022-10-16T01:51:40;8.85;;;4.38;;
62092;SDS011;59819;52.976;6.846;2022-10-16T01:54:08;7.90;;;4.38;;
62092;SDS011;59819;52.976;6.846;2022-10-16T01:56:35;6.07;;;3.83;;
62092;SDS011;59819;52.976;6.846;2022-10-16T01:59:16;8.82;;;4.32;;
62092;SDS011;59819;52.976;6.846;2022-10-16T02:01:45;8.85;;;4.30;;
62092;SDS011;59819;52.976;6.846;2022-10-16T02:04:22;8.57;;;4.70;;
62092;SDS011;59819;52.976;6.846;2022-10-16T02:06:49;8.77;;;4.30;;
62092;SDS011;59819;52.976;6.846;2022-10-16T02:09:15;7.68;;;4.30;;
62092;SDS011;59819;52.976;6.846;2022-10-16T02:11:42;8.00;;;4.20;;
62092;SDS011;59819;52.976;6.846;2022-10-16T02:14:08;8.27;;;5.00;;
62092;SDS011;59819;52.976;6.846;2022-10-16T02:16:36;9.48;;;4.60;;
62092;SDS011;59819;52.976;6.846;2022-10-16T02:19:02;8.32;;;4.78;;
62092;SDS011;59819;52.976;6.846;2022-10-16T02:21:29;8.40;;;4.80;;
62092;SDS011;59819;52.976;6.846;2022-10-16T02:24:08;7.05;;;4.45;;
62092;SDS011;59819;52.976;6.846;2022-10-16T02:26:49;7.85;;;4.68;;
62092;SDS011;59819;52.976;6.846;2022-10-16T02:29:17;8.32;;;4.55;;
62092;SDS011;59819;52.976;6.846;2022-10-16T02:31:46;7.03;;;4.57;;
62092;SDS011;59819;52.976;6.846;2022-10-16T02:34:16;8.13;;;4.63;;
62092;SDS011;59819;52.976;6.846;2022-10-16T02:36:43;8.45;;;4.78;;
62092;SDS011;59819;52.976;6.846;2022-10-16T02:39:10;9.35;;;5.05;;
62092;SDS011;59819;52.976;6.846;2022-10-16T02:41:36;7.57;;;4.95;;
62092;SDS011;59819;52.976;6.846;2022-10-16T02:44:03;6.72;;;4.90;;
62092;SDS011;59819;52.976;6.846;2022-10-16T02:46:29;7.30;;;4.57;;
62092;SDS011;59819;52.976;6.846;2022-10-16T02:48:55;7.95;;;4.57;;
62092;SDS011;59819;52.976;6.846;2022-10-16T02:51:21;6.72;;;4.70;;
62092;SDS011;59819;52.976;6.846;2022-10-16T02:53:47;7.95;;;4.28;;
62092;SDS011;59819;52.976;6.846;2022-10-16T02:56:13;7.25;;;4.50;;
62092;SDS011;59819;52.976;6.846;2022-10-16T02:58:39;5.88;;;4.32;;
62092;SDS011;59819;52.976;6.846;2022-10-16T03:01:05;7.60;;;4.60;;
62092;SDS011;59819;52.976;6.846;2022-10-16T03:03:31;6.40;;;4.25;;
62092;SDS011;59819;52.976;6.846;2022-10-16T03:05:57;8.88;;;4.45;;
62092;SDS011;59819;52.976;6.846;2022-10-16T03:08:23;5.15;;;4.50;;
62092;SDS011;59819;52.976;6.846;2022-10-16T03:10:50;5.03;;;4.53;;
62092;SDS011;59819;52.976;6.846;2022-10-16T03:13:16;5.78;;;4.18;;
62092;SDS011;59819;52.976;6.846;2022-10-16T03:15:43;5.13;;;4.18;;
62092;SDS011;59819;52.976;6.846;2022-10-16T03:18:09;5.43;;;4.03;;
62092;SDS011;59819;52.976;6.846;2022-10-16T03:20:35;8.07;;;4.60;;
62092;SDS011;59819;52.976;6.846;2022-10-16T03:23:01;7.00;;;4.13;;
62092;SDS011;59819;52.976;6.846;2022-10-16T03:25:28;5.95;;;4.10;;
62092;SDS011;59819;52.976;6.846;2022-10-16T03:27:54;7.00;;;4.60;;
62092;SDS011;59819;52.976;6.846;2022-10-16T03:30:20;7.90;;;4.45;;
62092;SDS011;59819;52.976;6.846;2022-10-16T03:32:46;8.57;;;4.50;;
62092;SDS011;59819;52.976;6.846;2022-10-16T03:35:12;7.13;;;4.55;;
62092;SDS011;59819;52.976;6.846;2022-10-16T03:37:38;5.82;;;4.20;;
62092;SDS011;59819;52.976;6.846;2022-10-16T03:40:04;6.47;;;4.03;;
62092;SDS011;59819;52.976;6.846;2022-10-16T03:42:30;6.25;;;3.95;;
62092;SDS011;59819;52.976;6.846;2022-10-16T03:44:56;11.63;;;4.25;;
62092;SDS011;59819;52.976;6.846;2022-10-16T03:47:23;4.97;;;3.78;;
62092;SDS011;59819;52.976;6.846;2022-10-16T03:49:49;9.45;;;4.47;;
62092;SDS011;59819;52.976;6.846;2022-10-16T03:52:15;4.85;;;3.55;;
62092;SDS011;59819;52.976;6.846;2022-10-16T03:54:41;6.72;;;3.97;;
62092;SDS011;59819;52.976;6.846;2022-10-16T03:57:08;5.38;;;3.90;;
62092;SDS011;59819;52.976;6.846;2022-10-16T03:59:34;7.43;;;4.28;;
62092;SDS011;59819;52.976;6.846;2022-10-16T04:02:00;5.82;;;4.00;;
62092;SDS011;59819;52.976;6.846;2022-10-16T04:04:26;5.90;;;3.85;;
62092;SDS011;59819;52.976;6.846;2022-10-16T04:06:52;6.75;;;3.75;;
62092;SDS011;59819;52.976;6.846;2022-10-16T04:09:18;6.32;;;4.15;;
62092;SDS011;59819;52.976;6.846;2022-10-16T04:11:44;4.35;;;3.95;;
62092;SDS011;59819;52.976;6.846;2022-10-16T04:14:10;7.18;;;4.00;;
62092;SDS011;59819;52.976;6.846;2022-10-16T04:16:36;5.95;;;3.90;;
62092;SDS011;59819;52.976;6.846;2022-10-16T04:19:02;7.22;;;3.80;;
62092;SDS011;59819;52.976;6.846;2022-10-16T04:21:28;7.85;;;4.13;;
62092;SDS011;59819;52.976;6.846;2022-10-16T04:23:54;4.80;;;3.60;;
62092;SDS011;59819;52.976;6.846;2022-10-16T04:26:20;8.77;;;3.90;;
62092;SDS011;59819;52.976;6.846;2022-10-16T04:28:46;6.40;;;3.90;;
62092;SDS011;59819;52.976;6.846;2022-10-16T04:31:12;7.60;;;4.07;;
62092;SDS011;59819;52.976;6.846;2022-10-16T04:33:41;5.75;;;3.80;;
62092;SDS011;59819;52.976;6.846;2022-10-16T04:36:08;4.45;;;3.88;;
62092;SDS011;59819;52.976;6.846;2022-10-16T04:38:34;4.65;;;4.15;;
62092;SDS011;59819;52.976;6.846;2022-10-16T04:41:02;5.78;;;4.07;;
62092;SDS011;59819;52.976;6.846;2022-10-16T04:43:28;7.80;;;4.40;;
62092;SDS011;59819;52.976;6.846;2022-10-16T04:45:54;6.63;;;4.70;;
62092;SDS011;59819;52.976;6.846;2022-10-16T04:48:21;7.65;;;4.72;;
62092;SDS011;59819;52.976;6.846;2022-10-16T04:50:47;9.38;;;4.97;;
62092;SDS011;59819;52.976;6.846;2022-10-16T04:53:13;6.57;;;4.40;;
62092;SDS011;59819;52.976;6.846;2022-10-16T04:55:40;7.47;;;5.05;;
62092;SDS011;59819;52.976;6.846;2022-10-16T04:58:06;7.47;;;5.00;;
62092;SDS011;59819;52.976;6.846;2022-10-16T05:00:33;6.50;;;4.95;;
62092;SDS011;59819;52.976;6.846;2022-10-16T05:02:59;6.97;;;4.82;;
62092;SDS011;59819;52.976;6.846;2022-10-16T05:05:26;6.10;;;5.03;;
62092;SDS011;59819;52.976;6.846;2022-10-16T05:07:52;6.68;;;5.38;;
62092;SDS011;59819;52.976;6.846;2022-10-16T05:10:18;7.50;;;5.15;;
62092;SDS011;59819;52.976;6.846;2022-10-16T05:12:44;8.95;;;5.35;;
62092;SDS011;59819;52.976;6.846;2022-10-16T05:15:10;6.45;;;5.30;;
62092;SDS011;59819;52.976;6.846;2022-10-16T05:17:37;8.90;;;5.13;;
62092;SDS011;59819;52.976;6.846;2022-10-16T05:20:03;6.80;;;5.35;;
62092;SDS011;59819;52.976;6.846;2022-10-16T05:22:29;7.32;;;5.78;;
62092;SDS011;59819;52.976;6.846;2022-10-16T05:24:55;6.75;;;5.60;;
62092;SDS011;59819;52.976;6.846;2022-10-16T05:27:21;7.43;;;5.32;;
62092;SDS011;59819;52.976;6.846;2022-10-16T05:29:47;7.93;;;5.60;;
62092;SDS011;59819;52.976;6.846;2022-10-16T05:32:17;6.57;;;5.50;;
62092;SDS011;59819;52.976;6.846;2022-10-16T05:34:44;7.85;;;5.78;;
62092;SDS011;59819;52.976;6.846;2022-10-16T05:37:10;6.97;;;5.40;;
62092;SDS011;59819;52.976;6.846;2022-10-16T05:39:37;7.88;;;5.30;;
62092;SDS011;59819;52.976;6.846;2022-10-16T05:42:04;5.78;;;5.18;;
62092;SDS011;59819;52.976;6.846;2022-10-16T05:44:30;7.40;;;5.18;;
62092;SDS011;59819;52.976;6.846;2022-10-16T05:46:56;6.82;;;5.28;;
62092;SDS011;59819;52.976;6.846;2022-10-16T05:49:22;8.27;;;5.60;;
62092;SDS011;59819;52.976;6.846;2022-10-16T05:51:48;6.57;;;5.32;;
62092;SDS011;59819;52.976;6.846;2022-10-16T05:54:14;8.07;;;5.72;;
62092;SDS011;59819;52.976;6.846;2022-10-16T05:56:40;7.38;;;5.60;;
62092;SDS011;59819;52.976;6.846;2022-10-16T05:59:06;7.10;;;5.35;;
62092;SDS011;59819;52.976;6.846;2022-10-16T06:01:32;7.13;;;6.10;;
62092;SDS011;59819;52.976;6.846;2022-10-16T06:03:58;8.40;;;5.85;;
62092;SDS011;59819;52.976;6.846;2022-10-16T06:06:26;7.05;;;6.03;;
62092;SDS011;59819;52.976;6.846;2022-10-16T06:08:53;9.18;;;6.20;;
62092;SDS011;59819;52.976;6.846;2022-10-16T06:11:20;7.22;;;5.85;;
62092;SDS011;59819;52.976;6.846;2022-10-16T06:13:50;8.57;;;5.60;;
62092;SDS011;59819;52.976;6.846;2022-10-16T06:16:16;8.98;;;6.10;;
62092;SDS011;59819;52.976;6.846;2022-10-16T06:18:43;6.55;;;5.70;;
62092;SDS011;59819;52.976;6.846;2022-10-16T06:21:13;8.00;;;6.07;;
62092;SDS011;59819;52.976;6.846;2022-10-16T06:23:40;6.43;;;5.47;;
62092;SDS011;59819;52.976;6.846;2022-10-16T06:26:07;7.47;;;5.32;;
62092;SDS011;59819;52.976;6.846;2022-10-16T06:28:33;8.65;;;5.40;;
62092;SDS011;59819;52.976;6.846;2022-10-16T06:31:00;6.82;;;5.30;;
62092;SDS011;59819;52.976;6.846;2022-10-16T06:33:26;8.52;;;5.72;;
62092;SDS011;59819;52.976;6.846;2022-10-16T06:35:52;9.23;;;5.13;;
62092;SDS011;59819;52.976;6.846;2022-10-16T06:38:18;8.63;;;4.80;;
62092;SDS011;59819;52.976;6.846;2022-10-16T06:40:44;6.38;;;4.63;;
62092;SDS011;59819;52.976;6.846;2022-10-16T06:43:10;7.57;;;4.82;;
62092;SDS011;59819;52.976;6.846;2022-10-16T06:45:36;9.20;;;4.55;;
62092;SDS011;59819;52.976;6.846;2022-10-16T06:48:02;8.13;;;4.60;;
62092;SDS011;59819;52.976;6.846;2022-10-16T06:50:28;7.78;;;4.20;;
62092;SDS011;59819;52.976;6.846;2022-10-16T06:52:54;5.38;;;4.13;;
62092;SDS011;59819;52.976;6.846;2022-10-16T06:55:20;6.78;;;4.30;;
62092;SDS011;59819;52.976;6.846;2022-10-16T06:57:46;5.65;;;4.13;;
62092;SDS011;59819;52.976;6.846;2022-10-16T07:00:13;5.13;;;4.22;;
62092;SDS011;59819;52.976;6.846;2022-10-16T07:02:39;5.25;;;4.00;;
62092;SDS011;59819;52.976;6.846;2022-10-16T07:05:06;6.20;;;3.95;;
62092;SDS011;59819;52.976;6.846;2022-10-16T07:07:32;6.53;;;4.60;;
62092;SDS011;59819;52.976;6.846;2022-10-16T07:09:58;6.18;;;4.10;;
62092;SDS011;59819;52.976;6.846;2022-10-16T07:12:24;6.45;;;4.40;;
62092;SDS011;59819;52.976;6.846;2022-10-16T07:14:50;6.53;;;4.07;;
62092;SDS011;59819;52.976;6.846;2022-10-16T07:17:17;5.05;;;4.18;;
62092;SDS011;59819;52.976;6.846;2022-10-16T07:19:44;4.80;;;4.07;;
62092;SDS011;59819;52.976;6.846;2022-10-16T07:22:10;9.13;;;4.13;;
62092;SDS011;59819;52.976;6.846;2022-10-16T07:24:36;6.05;;;3.90;;
62092;SDS011;59819;52.976;6.846;2022-10-16T07:27:02;7.03;;;4.05;;
62092;SDS011;59819;52.976;6.846;2022-10-16T07:29:28;5.50;;;3.75;;
62092;SDS011;59819;52.976;6.846;2022-10-16T07:31:55;5.50;;;4.00;;
62092;SDS011;59819;52.976;6.846;2022-10-16T07:34:21;7.72;;;3.95;;
62092;SDS011;59819;52.976;6.846;2022-10-16T07:36:47;7.53;;;4.10;;
62092;SDS011;59819;52.976;6.846;2022-10-16T07:39:14;5.43;;;4.28;;
62092;SDS011;59819;52.976;6.846;2022-10-16T07:41:40;8.48;;;4.78;;
62092;SDS011;59819;52.976;6.846;2022-10-16T07:44:06;4.93;;;3.65;;
62092;SDS011;59819;52.976;6.846;2022-10-16T07:46:33;5.88;;;4.13;;
62092;SDS011;59819;52.976;6.846;2022-10-16T07:49:00;8.00;;;3.63;;
62092;SDS011;59819;52.976;6.846;2022-10-16T07:51:27;4.47;;;4.03;;
62092;SDS011;59819;52.976;6.846;2022-10-16T07:53:53;6.13;;;3.60;;
62092;SDS011;59819;52.976;6.846;2022-10-16T07:56:19;5.78;;;3.70;;
62092;SDS011;59819;52.976;6.846;2022-10-16T07:58:45;6.63;;;3.67;;
62092;SDS011;59819;52.976;6.846;2022-10-16T08:01:12;6.53;;;3.50;;
62092;SDS011;59819;52.976;6.846;2022-10-16T08:03:41;6.90;;;3.75;;
62092;SDS011;59819;52.976;6.846;2022-10-16T08:06:07;4.70;;;3.60;;
62092;SDS011;59819;52.976;6.846;2022-10-16T08:08:33;4.72;;;3.38;;
62092;SDS011;59819;52.976;6.846;2022-10-16T08:11:00;6.53;;;3.40;;
62092;SDS011;59819;52.976;6.846;2022-10-16T08:13:28;5.55;;;3.53;;
62092;SDS011;59819;52.976;6.846;2022-10-16T08:15:54;9.07;;;3.50;;
62092;SDS011;59819;52.976;6.846;2022-10-16T08:18:21;5.45;;;3.38;;
62092;SDS011;59819;52.976;6.846;2022-10-16T08:20:47;9.05;;;3.38;;
62092;SDS011;59819;52.976;6.846;2022-10-16T08:23:13;6.75;;;3.03;;
62092;SDS011;59819;52.976;6.846;2022-10-16T08:25:40;6.25;;;3.25;;
62092;SDS011;59819;52.976;6.846;2022-10-16T08:28:07;5.00;;;3.20;;
62092;SDS011;59819;52.976;6.846;2022-10-16T08:30:33;5.47;;;3.30;;
62092;SDS011;59819;52.976;6.846;2022-10-16T08:32:59;4.72;;;3.05;;
62092;SDS011;59819;52.976;6.846;2022-10-16T08:35:25;6.15;;;3.00;;
62092;SDS011;59819;52.976;6.846;2022-10-16T08:37:51;5.32;;;2.80;;
62092;SDS011;59819;52.976;6.846;2022-10-16T08:40:25;5.38;;;3.00;;
62092;SDS011;59819;52.976;6.846;2022-10-16T08:45:30;5.63;;;2.97;;
62092;SDS011;59819;52.976;6.846;2022-10-16T08:50:31;4.22;;;2.13;;
62092;SDS011;59819;52.976;6.846;2022-10-16T08:52:57;6.97;;;2.10;;
62092;SDS011;59819;52.976;6.846;2022-10-16T08:55:29;5.72;;;2.30;;
62092;SDS011;59819;52.976;6.846;2022-10-16T08:57:57;4.30;;;1.92;;
62092;SDS011;59819;52.976;6.846;2022-10-16T09:00:23;3.17;;;1.80;;
62092;SDS011;59819;52.976;6.846;2022-10-16T09:02:57;4.47;;;1.85;;
62092;SDS011;59819;52.976;6.846;2022-10-16T09:05:32;4.75;;;2.10;;
62092;SDS011;59819;52.976;6.846;2022-10-16T09:16:27;4.45;;;2.22;;
62092;SDS011;59819;52.976;6.846;2022-10-16T09:19:11;4.78;;;2.60;;
62092;SDS011;59819;52.976;6.846;2022-10-16T09:21:40;4.00;;;2.60;;
62092;SDS011;59819;52.976;6.846;2022-10-16T09:24:09;7.03;;;2.70;;
62092;SDS011;59819;52.976;6.846;2022-10-16T09:26:37;7.05;;;2.75;;
62092;SDS011;59819;52.976;6.846;2022-10-16T09:29:03;5.38;;;2.70;;
62092;SDS011;59819;52.976;6.846;2022-10-16T09:31:29;7.68;;;2.58;;
62092;SDS011;59819;52.976;6.846;2022-10-16T09:33:57;6.40;;;2.58;;
62092;SDS011;59819;52.976;6.846;2022-10-16T09:36:24;6.93;;;2.70;;
62092;SDS011;59819;52.976;6.846;2022-10-16T09:39:00;6.43;;;2.80;;
62092;SDS011;59819;52.976;6.846;2022-10-16T09:41:26;5.97;;;2.63;;
62092;SDS011;59819;52.976;6.846;2022-10-16T09:46:24;7.38;;;2.80;;
62092;SDS011;59819;52.976;6.846;2022-10-16T09:48:51;9.23;;;2.72;;
62092;SDS011;59819;52.976;6.846;2022-10-16T09:51:35;7.45;;;2.80;;
62092;SDS011;59819;52.976;6.846;2022-10-16T09:56:34;5.03;;;2.40;;
62092;SDS011;59819;52.976;6.846;2022-10-16T09:59:22;5.75;;;2.30;;
62092;SDS011;59819;52.976;6.846;2022-10-16T10:01:52;9.27;;;2.90;;
62092;SDS011;59819;52.976;6.846;2022-10-16T10:04:20;8.07;;;2.60;;
62092;SDS011;59819;52.976;6.846;2022-10-16T10:06:47;8.13;;;2.47;;
62092;SDS011;59819;52.976;6.846;2022-10-16T10:11:47;6.57;;;1.88;;
62092;SDS011;59819;52.976;6.846;2022-10-16T10:16:43;12.40;;;2.53;;
62092;SDS011;59819;52.976;6.846;2022-10-16T10:19:27;9.77;;;2.45;;
62092;SDS011;59819;52.976;6.846;2022-10-16T10:21:53;9.38;;;2.58;;
62092;SDS011;59819;52.976;6.846;2022-10-16T10:24:19;6.57;;;1.90;;
62092;SDS011;59819;52.976;6.846;2022-10-16T10:26:51;9.50;;;2.30;;
62092;SDS011;59819;52.976;6.846;2022-10-16T10:29:22;8.18;;;2.58;;
62092;SDS011;59819;52.976;6.846;2022-10-16T10:34:52;5.75;;;2.20;;
62092;SDS011;59819;52.976;6.846;2022-10-16T10:40:08;9.27;;;2.55;;
62092;SDS011;59819;52.976;6.846;2022-10-16T10:43:00;8.35;;;2.33;;
62092;SDS011;59819;52.976;6.846;2022-10-16T10:45:26;7.53;;;2.10;;
62092;SDS011;59819;52.976;6.846;2022-10-16T10:50:25;9.13;;;2.40;;
62092;SDS011;59819;52.976;6.846;2022-10-16T10:55:39;6.95;;;2.25;;
62092;SDS011;59819;52.976;6.846;2022-10-16T11:05:45;8.00;;;2.20;;
62092;SDS011;59819;52.976;6.846;2022-10-16T11:08:19;10.45;;;2.28;;
62092;SDS011;59819;52.976;6.846;2022-10-16T11:15:48;8.60;;;2.53;;
62092;SDS011;59819;52.976;6.846;2022-10-16T11:18:16;7.35;;;2.20;;
62092;SDS011;59819;52.976;6.846;2022-10-16T11:20:46;6.82;;;2.08;;
62092;SDS011;59819;52.976;6.846;2022-10-16T11:23:18;7.53;;;2.10;;
62092;SDS011;59819;52.976;6.846;2022-10-16T11:25:46;10.68;;;2.60;;
62092;SDS011;59819;52.976;6.846;2022-10-16T11:28:14;10.35;;;2.25;;
62092;SDS011;59819;52.976;6.846;2022-10-16T11:44:08;10.18;;;2.47;;
62092;SDS011;59819;52.976;6.846;2022-10-16T11:46:07;8.20;;;2.28;;
62092;SDS011;59819;52.976;6.846;2022-10-16T11:48:52;8.68;;;2.35;;
62092;SDS011;59819;52.976;6.846;2022-10-16T11:51:35;8.30;;;2.33;;
62092;SDS011;59819;52.976;6.846;2022-10-16T11:56:54;7.55;;;2.72;;
62092;SDS011;59819;52.976;6.846;2022-10-16T11:59:27;8.93;;;2.30;;
62092;SDS011;59819;52.976;6.846;2022-10-16T12:04:42;6.75;;;2.30;;
62092;SDS011;59819;52.976;6.846;2022-10-16T12:07:24;6.97;;;1.77;;
62092;SDS011;59819;52.976;6.846;2022-10-16T12:09:52;10.30;;;2.10;;
62092;SDS011;59819;52.976;6.846;2022-10-16T12:15:15;7.80;;;2.17;;
62092;SDS011;59819;52.976;6.846;2022-10-16T12:17:43;11.60;;;2.33;;
62092;SDS011;59819;52.976;6.846;2022-10-16T12:23:21;11.00;;;2.10;;
62092;SDS011;59819;52.976;6.846;2022-10-16T12:27:55;9.88;;;2.65;;
62092;SDS011;59819;52.976;6.846;2022-10-16T12:30:22;9.13;;;2.67;;
62092;SDS011;59819;52.976;6.846;2022-10-16T12:32:52;8.60;;;2.03;;
62092;SDS011;59819;52.976;6.846;2022-10-16T12:35:29;8.55;;;1.90;;
62092;SDS011;59819;52.976;6.846;2022-10-16T12:38:56;10.90;;;2.33;;
62092;SDS011;59819;52.976;6.846;2022-10-16T12:40:58;7.55;;;2.08;;
62092;SDS011;59819;52.976;6.846;2022-10-16T12:43:26;5.68;;;1.70;;
62092;SDS011;59819;52.976;6.846;2022-10-16T12:48:46;8.65;;;2.17;;
62092;SDS011;59819;52.976;6.846;2022-10-16T12:59:09;10.90;;;2.50;;
62092;SDS011;59819;52.976;6.846;2022-10-16T13:01:41;8.15;;;2.25;;
62092;SDS011;59819;52.976;6.846;2022-10-16T13:04:21;8.40;;;2.17;;
62092;SDS011;59819;52.976;6.846;2022-10-16T13:14:48;8.98;;;2.45;;
62092;SDS011;59819;52.976;6.846;2022-10-16T13:17:36;7.30;;;2.00;;
62092;SDS011;59819;52.976;6.846;2022-10-16T13:20:15;9.52;;;2.08;;
62092;SDS011;59819;52.976;6.846;2022-10-16T13:27:55;8.13;;;1.90;;
62092;SDS011;59819;52.976;6.846;2022-10-16T13:30:26;9.27;;;1.90;;
62092;SDS011;59819;52.976;6.846;2022-10-16T13:35:45;5.97;;;1.90;;
62092;SDS011;59819;52.976;6.846;2022-10-16T13:38:16;6.95;;;1.67;;
62092;SDS011;59819;52.976;6.846;2022-10-16T13:40:59;15.33;;;1.87;;
62092;SDS011;59819;52.976;6.846;2022-10-16T13:43:40;5.03;;;1.40;;
62092;SDS011;59819;52.976;6.846;2022-10-16T13:46:40;6.28;;;1.85;;
62092;SDS011;59819;52.976;6.846;2022-10-16T13:49:00;6.53;;;1.77;;
62092;SDS011;59819;52.976;6.846;2022-10-16T13:51:27;11.43;;;1.73;;
62092;SDS011;59819;52.976;6.846;2022-10-16T13:53:54;7.78;;;1.80;;
62092;SDS011;59819;52.976;6.846;2022-10-16T13:56:22;6.57;;;1.70;;
62092;SDS011;59819;52.976;6.846;2022-10-16T13:59:49;8.20;;;1.50;;
62092;SDS011;59819;52.976;6.846;2022-10-16T14:01:43;9.05;;;1.92;;
62092;SDS011;59819;52.976;6.846;2022-10-16T14:04:11;8.73;;;1.98;;
62092;SDS011;59819;52.976;6.846;2022-10-16T14:06:40;6.03;;;1.42;;
62092;SDS011;59819;52.976;6.846;2022-10-16T14:09:07;5.70;;;1.80;;
62092;SDS011;59819;52.976;6.846;2022-10-16T14:11:42;8.07;;;2.33;;
62092;SDS011;59819;52.976;6.846;2022-10-16T14:14:11;8.07;;;1.77;;
62092;SDS011;59819;52.976;6.846;2022-10-16T14:16:37;6.78;;;1.80;;
62092;SDS011;59819;52.976;6.846;2022-10-16T14:19:06;7.75;;;1.92;;
62092;SDS011;59819;52.976;6.846;2022-10-16T14:21:35;6.97;;;1.70;;
62092;SDS011;59819;52.976;6.846;2022-10-16T14:24:10;9.38;;;2.42;;
62092;SDS011;59819;52.976;6.846;2022-10-16T14:26:40;10.90;;;2.05;;
62092;SDS011;59819;52.976;6.846;2022-10-16T14:29:11;6.83;;;1.97;;
62092;SDS011;59819;52.976;6.846;2022-10-16T14:31:37;6.28;;;2.15;;
62092;SDS011;59819;52.976;6.846;2022-10-16T14:34:04;8.98;;;1.95;;
62092;SDS011;59819;52.976;6.846;2022-10-16T14:36:49;8.13;;;1.88;;
62092;SDS011;59819;52.976;6.846;2022-10-16T14:39:19;8.90;;;2.17;;
62092;SDS011;59819;52.976;6.846;2022-10-16T14:41:47;7.70;;;2.03;;
62092;SDS011;59819;52.976;6.846;2022-10-16T14:44:13;7.57;;;2.00;;
62092;SDS011;59819;52.976;6.846;2022-10-16T14:46:41;8.48;;;1.95;;
62092;SDS011;59819;52.976;6.846;2022-10-16T14:51:34;8.25;;;1.80;;
62092;SDS011;59819;52.976;6.846;2022-10-16T14:54:00;8.63;;;2.25;;
62092;SDS011;59819;52.976;6.846;2022-10-16T14:56:46;10.55;;;2.10;;
62092;SDS011;59819;52.976;6.846;2022-10-16T15:01:45;9.77;;;2.17;;
62092;SDS011;59819;52.976;6.846;2022-10-16T15:04:12;8.27;;;1.80;;
62092;SDS011;59819;52.976;6.846;2022-10-16T15:06:38;7.55;;;1.88;;
62092;SDS011;59819;52.976;6.846;2022-10-16T15:09:05;7.90;;;1.88;;
62092;SDS011;59819;52.976;6.846;2022-10-16T15:11:31;9.13;;;1.90;;
62092;SDS011;59819;52.976;6.846;2022-10-16T15:13:58;7.50;;;1.85;;
62092;SDS011;59819;52.976;6.846;2022-10-16T15:16:24;7.38;;;1.95;;
62092;SDS011;59819;52.976;6.846;2022-10-16T15:18:50;9.15;;;2.45;;
62092;SDS011;59819;52.976;6.846;2022-10-16T15:21:23;5.03;;;1.60;;
62092;SDS011;59819;52.976;6.846;2022-10-16T15:23:50;8.40;;;1.95;;
62092;SDS011;59819;52.976;6.846;2022-10-16T15:26:16;13.57;;;2.30;;
62092;SDS011;59819;52.976;6.846;2022-10-16T15:28:43;10.73;;;2.10;;
62092;SDS011;59819;52.976;6.846;2022-10-16T15:31:09;9.10;;;2.25;;
62092;SDS011;59819;52.976;6.846;2022-10-16T15:33:35;9.30;;;2.33;;
62092;SDS011;59819;52.976;6.846;2022-10-16T15:36:02;7.50;;;1.90;;
62092;SDS011;59819;52.976;6.846;2022-10-16T15:38:29;11.40;;;2.10;;
62092;SDS011;59819;52.976;6.846;2022-10-16T15:40:55;9.05;;;2.70;;
62092;SDS011;59819;52.976;6.846;2022-10-16T15:43:21;9.93;;;2.40;;
62092;SDS011;59819;52.976;6.846;2022-10-16T15:45:58;9.60;;;2.42;;
62092;SDS011;59819;52.976;6.846;2022-10-16T15:48:25;8.13;;;2.30;;
62092;SDS011;59819;52.976;6.846;2022-10-16T15:50:51;7.30;;;2.25;;
62092;SDS011;59819;52.976;6.846;2022-10-16T15:53:17;9.18;;;2.20;;
62092;SDS011;59819;52.976;6.846;2022-10-16T15:55:43;9.25;;;2.30;;
62092;SDS011;59819;52.976;6.846;2022-10-16T15:58:09;8.48;;;2.50;;
62092;SDS011;59819;52.976;6.846;2022-10-16T16:00:35;13.02;;;3.05;;
62092;SDS011;59819;52.976;6.846;2022-10-16T16:03:02;10.45;;;2.90;;
62092;SDS011;59819;52.976;6.846;2022-10-16T16:05:28;10.70;;;2.88;;
62092;SDS011;59819;52.976;6.846;2022-10-16T16:07:54;9.85;;;2.80;;
62092;SDS011;59819;52.976;6.846;2022-10-16T16:10:20;11.52;;;3.40;;
62092;SDS011;59819;52.976;6.846;2022-10-16T16:12:47;10.98;;;3.10;;
62092;SDS011;59819;52.976;6.846;2022-10-16T16:15:17;10.00;;;2.88;;
62092;SDS011;59819;52.976;6.846;2022-10-16T16:17:43;10.10;;;3.17;;
62092;SDS011;59819;52.976;6.846;2022-10-16T16:20:09;8.70;;;3.15;;
62092;SDS011;59819;52.976;6.846;2022-10-16T16:22:36;16.23;;;3.38;;
62092;SDS011;59819;52.976;6.846;2022-10-16T16:25:02;12.13;;;3.28;;
62092;SDS011;59819;52.976;6.846;2022-10-16T16:27:28;9.82;;;3.13;;
62092;SDS011;59819;52.976;6.846;2022-10-16T16:29:58;8.05;;;2.90;;
62092;SDS011;59819;52.976;6.846;2022-10-16T16:32:25;8.63;;;3.08;;
62092;SDS011;59819;52.976;6.846;2022-10-16T16:34:51;9.75;;;3.35;;
62092;SDS011;59819;52.976;6.846;2022-10-16T16:37:17;9.02;;;3.00;;
62092;SDS011;59819;52.976;6.846;2022-10-16T16:39:44;8.60;;;3.22;;
62092;SDS011;59819;52.976;6.846;2022-10-16T16:42:10;11.40;;;3.63;;
62092;SDS011;59819;52.976;6.846;2022-10-16T16:44:36;11.82;;;3.05;;
62092;SDS011;59819;52.976;6.846;2022-10-16T16:47:03;9.60;;;3.30;;
62092;SDS011;59819;52.976;6.846;2022-10-16T16:49:29;11.20;;;3.90;;
62092;SDS011;59819;52.976;6.846;2022-10-16T16:51:55;9.00;;;3.78;;